OOCL Charleston — VRFX2 — position and weather

sailwx.info

Track history (hours):
 
Tides and Currents Weather Stations Pressure Air Temp Water Temp Dewpoint Dewpoint Depression Visibility Wind Speed Wind Dir Waves Ship Positions

OOCL Charleston

Last reported at 2017-Dec-17 09:29 UTC. Time now 2017-Dec-17 09:57 UTC.
Position N 22°34' E 120°18'.

Length 260 m; draft 9.4 m.

Type: Cargo ship. MMSI: 477626388.

Date/timePositionNaut miles runAvg speedWind from/ knotsBaromVisibWave heightAir tempDewpointWater temp
2017-Dec-17 09:29N 22°34' E 120°18'0 0.0
2017-Dec-17 09:00N 22°34' E 120°18'0 0.0
2017-Dec-17 08:30N 22°34' E 120°18'0 0.0
2017-Dec-17 08:00N 22°34' E 120°18'0 0.0
2017-Dec-17 07:30N 22°34' E 120°18'0 0.0
2017-Dec-17 07:00N 22°34' E 120°18'0 0.0
2017-Dec-17 06:29N 22°34' E 120°18'0 0.0
2017-Dec-17 06:00N 22°34' E 120°18'0 0.0
2017-Dec-17 05:29N 22°34' E 120°18'0 0.0
2017-Dec-17 05:00N 22°34' E 120°18'0 0.0
2017-Dec-17 04:29N 22°34' E 120°18'0 0.0
2017-Dec-17 03:59N 22°34' E 120°18'0 0.0
2017-Dec-17 03:30N 22°34' E 120°18'0 0.0
2017-Dec-17 03:00N 22°34' E 120°18'0 0.0
2017-Dec-17 02:26N 22°34' E 120°18'0 0.1
2017-Dec-17 01:59N 22°34' E 120°18'0 0.1
2017-Dec-17 01:30N 22°34' E 120°18'0 0.0
2017-Dec-17 01:00N 22°34' E 120°18'0 0.0
2017-Dec-17 00:30N 22°34' E 120°18'0 0.1
2017-Dec-17 00:00N 22°34' E 120°18'1 2.7
2017-Dec-16 23:30N 22°33' E 120°19'3 5.5
2017-Dec-16 23:00N 22°32' E 120°16'0 0.4
2017-Dec-16 22:30N 22°32' E 120°16'3 5.8
2017-Dec-16 22:00N 22°31' E 120°13'3 5.4
2017-Dec-16 21:30N 22°29' E 120°11'0 0.7
2017-Dec-16 21:01N 22°30' E 120°10'0 0.7
2017-Dec-16 20:30N 22°30' E 120°10'0 0.7
2017-Dec-16 20:00N 22°30' E 120°10'0 0.6
2017-Dec-16 19:30N 22°31' E 120°10'1 1.1
2017-Dec-16 19:00N 22°31' E 120°10'4 7.1
2017-Dec-16 18:30N 22°31' E 120°06'4 7.1
2017-Dec-16 18:00N 22°31' E 120°02'3 6.8
2017-Dec-16 17:30N 22°30' E 119°58'3 6.6
2017-Dec-16 17:00N 22°30' E 119°55'714.6
2017-Dec-16 16:30N 22°28' E 119°47'816.9
2017-Dec-16 16:00N 22°28' E 119°38'  
Track history (hours):
 
Tides and Currents Weather Stations Pressure Air Temp Water Temp Dewpoint Dewpoint Depression Visibility Wind Speed Wind Dir Waves Ship Positions

OOCL Charleston

Last reported at 2017-Dec-17 09:29 UTC. Time now 2017-Dec-17 09:57 UTC.
Position N 22°34' E 120°18'.

Length 260 m; draft 9.4 m.

Type: Cargo ship. MMSI: 477626388.

Date/timePositionNaut miles runAvg speedWind from/ knotsBaromVisibWave heightAir tempDewpointWater temp
2017-Dec-17 09:29N 22°34' E 120°18'0 0.0
2017-Dec-17 09:00N 22°34' E 120°18'0 0.0
2017-Dec-17 08:30N 22°34' E 120°18'0 0.0
2017-Dec-17 08:00N 22°34' E 120°18'0 0.0
2017-Dec-17 07:30N 22°34' E 120°18'0 0.0
2017-Dec-17 07:00N 22°34' E 120°18'0 0.0
2017-Dec-17 06:29N 22°34' E 120°18'0 0.0
2017-Dec-17 06:00N 22°34' E 120°18'0 0.0
2017-Dec-17 05:29N 22°34' E 120°18'0 0.0
2017-Dec-17 05:00N 22°34' E 120°18'0 0.0
2017-Dec-17 04:29N 22°34' E 120°18'0 0.0
2017-Dec-17 03:59N 22°34' E 120°18'0 0.0
2017-Dec-17 03:30N 22°34' E 120°18'0 0.0
2017-Dec-17 03:00N 22°34' E 120°18'0 0.0
2017-Dec-17 02:26N 22°34' E 120°18'0 0.1
2017-Dec-17 01:59N 22°34' E 120°18'0 0.1
2017-Dec-17 01:30N 22°34' E 120°18'0 0.0
2017-Dec-17 01:00N 22°34' E 120°18'0 0.0
2017-Dec-17 00:30N 22°34' E 120°18'0 0.1
2017-Dec-17 00:00N 22°34' E 120°18'1 2.7
2017-Dec-16 23:30N 22°33' E 120°19'3 5.5
2017-Dec-16 23:00N 22°32' E 120°16'0 0.4
2017-Dec-16 22:30N 22°32' E 120°16'3 5.8
2017-Dec-16 22:00N 22°31' E 120°13'3 5.4
2017-Dec-16 21:30N 22°29' E 120°11'0 0.7
2017-Dec-16 21:01N 22°30' E 120°10'0 0.7
2017-Dec-16 20:30N 22°30' E 120°10'0 0.7
2017-Dec-16 20:00N 22°30' E 120°10'0 0.6
2017-Dec-16 19:30N 22°31' E 120°10'1 1.1
2017-Dec-16 19:00N 22°31' E 120°10'4 7.1
2017-Dec-16 18:30N 22°31' E 120°06'4 7.1
2017-Dec-16 18:00N 22°31' E 120°02'3 6.8
2017-Dec-16 17:30N 22°30' E 119°58'3 6.6
2017-Dec-16 17:00N 22°30' E 119°55'714.6
2017-Dec-16 16:30N 22°28' E 119°47'816.9
2017-Dec-16 16:00N 22°28' E 119°38'  

Dump ship's entire track history